createdAt,value
2024-02-26T06:14:45.835Z,9.20
2024-02-26T06:17:58.725Z,9.57
2024-02-26T06:21:14.225Z,9.10
2024-02-26T06:24:26.969Z,8.95
2024-02-26T06:27:39.630Z,9.27
2024-02-26T06:30:53.599Z,9.60
2024-02-26T06:34:06.269Z,10.65
2024-02-26T06:37:19.207Z,9.80
2024-02-26T06:40:31.679Z,10.43
2024-02-26T06:43:44.370Z,10.02
2024-02-26T06:46:57.782Z,10.25
2024-02-26T06:50:12.527Z,10.77
2024-02-26T06:53:25.296Z,11.15
2024-02-26T06:56:38.008Z,11.18
2024-02-26T06:59:50.812Z,11.07
2024-02-26T07:03:03.642Z,10.52
2024-02-26T07:06:16.324Z,12.30
2024-02-26T07:09:29.170Z,11.63
2024-02-26T07:12:41.695Z,11.32
2024-02-26T07:15:54.442Z,11.20
2024-02-26T07:19:06.984Z,10.68
2024-02-26T07:22:19.757Z,11.15
2024-02-26T07:25:33.232Z,12.30
2024-02-26T07:28:46.005Z,11.77
2024-02-26T07:31:59.193Z,10.80
2024-02-26T07:35:11.977Z,13.20
2024-02-26T07:38:32.414Z,12.57
2024-02-26T07:41:55.042Z,12.77
2024-02-26T07:45:08.042Z,13.05
2024-02-26T07:48:20.797Z,12.77
2024-02-26T07:51:33.263Z,13.75
2024-02-26T07:54:45.985Z,12.82
2024-02-26T07:57:58.396Z,12.40
2024-02-26T08:01:14.755Z,11.82
2024-02-26T08:04:28.382Z,11.73
2024-02-26T08:07:43.727Z,11.57
2024-02-26T08:10:56.620Z,12.02
2024-02-26T08:14:09.122Z,12.52
2024-02-26T08:17:21.825Z,11.75
2024-02-26T08:20:34.256Z,11.68
2024-02-26T08:23:47.063Z,11.45
2024-02-26T08:26:59.582Z,12.10
2024-02-26T08:30:15.494Z,11.77
2024-02-26T08:33:28.313Z,13.13
2024-02-26T08:36:41.128Z,13.82
2024-02-26T08:39:53.685Z,12.77
2024-02-26T08:43:06.544Z,13.02
2024-02-26T08:46:19.181Z,14.75
2024-02-26T08:49:32.682Z,15.00
2024-02-26T08:52:47.412Z,15.77
2024-02-26T08:56:00.154Z,14.45
2024-02-26T08:59:12.667Z,14.52
2024-02-26T09:02:25.451Z,14.13
2024-02-26T09:05:37.888Z,14.77
2024-02-26T09:08:50.619Z,14.93
2024-02-26T09:12:03.769Z,14.95
2024-02-26T09:15:16.773Z,15.38
2024-02-26T09:18:30.569Z,16.10
2024-02-26T09:21:44.690Z,15.23
2024-02-26T09:24:57.131Z,13.85
2024-02-26T09:28:09.907Z,15.63
2024-02-26T09:31:22.303Z,15.05
2024-02-26T09:34:36.174Z,14.98
2024-02-26T09:37:50.183Z,14.60
2024-02-26T09:41:06.328Z,14.60
2024-02-26T09:44:22.349Z,15.15
2024-02-26T09:47:35.169Z,15.15
2024-02-26T09:50:48.013Z,15.73
2024-02-26T09:54:02.830Z,15.38
2024-02-26T09:57:18.115Z,12.85
2024-02-26T10:00:35.153Z,13.60
2024-02-26T10:03:51.698Z,14.10
2024-02-26T10:07:05.138Z,13.18
2024-02-26T10:10:18.713Z,15.55
2024-02-26T10:13:31.149Z,21.30
2024-02-26T10:16:47.924Z,16.15
2024-02-26T10:20:17.822Z,14.38
2024-02-26T10:23:30.726Z,13.98
2024-02-26T10:26:47.716Z,13.55
2024-02-26T10:30:20.348Z,13.70
2024-02-26T10:33:38.549Z,14.48
2024-02-26T10:36:53.765Z,14.32
2024-02-26T10:40:10.714Z,13.20
2024-02-26T10:43:23.412Z,13.25
2024-02-26T10:46:35.943Z,12.32
2024-02-26T10:49:51.351Z,12.63
2024-02-26T10:53:04.143Z,12.68
2024-02-26T10:56:16.835Z,12.57
2024-02-26T10:59:30.575Z,11.68
2024-02-26T11:02:43.278Z,12.43
2024-02-26T11:05:55.808Z,12.70
2024-02-26T11:09:09.462Z,12.55
2024-02-26T11:12:22.478Z,11.15
2024-02-26T11:15:35.471Z,11.75
2024-02-26T11:18:50.960Z,11.70
2024-02-26T11:22:15.780Z,11.23
2024-02-26T11:25:36.545Z,10.15
2024-02-26T11:28:52.588Z,10.88
2024-02-26T11:32:06.484Z,11.18
2024-02-26T11:35:19.890Z,9.23
2024-02-26T11:38:35.438Z,10.55
2024-02-26T11:41:48.297Z,10.10
2024-02-26T11:45:02.179Z,11.45
2024-02-26T11:48:16.431Z,10.55
2024-02-26T11:51:29.635Z,11.88
2024-02-26T11:54:58.173Z,12.45
2024-02-26T11:58:10.834Z,11.80
2024-02-26T12:01:40.208Z,12.65
2024-02-26T12:04:53.071Z,11.93
2024-02-26T12:08:09.161Z,11.02
2024-02-26T12:11:22.844Z,12.15
2024-02-26T12:14:43.229Z,12.00
2024-02-26T12:17:57.153Z,11.18
2024-02-26T12:21:15.938Z,12.02
2024-02-26T12:24:30.011Z,11.98
2024-02-26T12:27:43.720Z,11.10
2024-02-26T12:30:56.501Z,11.18
2024-02-26T12:34:11.145Z,11.15
2024-02-26T12:37:23.934Z,10.70
2024-02-26T12:40:36.545Z,10.88
2024-02-26T12:43:52.171Z,10.75
2024-02-26T12:47:05.423Z,10.20
2024-02-26T12:50:19.509Z,10.38
2024-02-26T12:53:32.941Z,10.40
2024-02-26T12:56:45.863Z,9.82
2024-02-26T12:59:58.491Z,10.45
2024-02-26T13:03:11.252Z,10.73
2024-02-26T13:06:24.420Z,9.93
2024-02-26T13:09:37.433Z,10.23
2024-02-26T13:12:56.570Z,10.60
2024-02-26T13:16:15.375Z,10.38
2024-02-26T13:19:29.259Z,10.85
2024-02-26T13:22:42.038Z,10.60
2024-02-26T13:25:57.515Z,10.27
2024-02-26T13:29:10.188Z,10.13
2024-02-26T13:32:22.584Z,10.32
2024-02-26T13:35:36.193Z,10.13
2024-02-26T13:38:56.026Z,9.98
2024-02-26T13:42:09.116Z,9.63
2024-02-26T13:45:21.607Z,10.75
2024-02-26T13:48:34.459Z,9.43
2024-02-26T13:51:47.007Z,10.35
2024-02-26T13:55:00.574Z,10.65
2024-02-26T13:58:14.747Z,10.60
2024-02-26T14:01:27.591Z,10.25
2024-02-26T14:04:40.383Z,11.30
2024-02-26T14:07:54.239Z,10.65
2024-02-26T14:11:07.305Z,10.43
2024-02-26T14:14:19.776Z,12.43
2024-02-26T14:17:32.450Z,12.45
2024-02-26T14:20:45.775Z,12.02
2024-02-26T14:23:58.505Z,12.50
2024-02-26T14:27:11.698Z,12.60
2024-02-26T14:30:24.530Z,12.95
2024-02-26T14:33:39.953Z,14.00
2024-02-26T14:36:52.743Z,13.98
2024-02-26T14:40:06.987Z,14.10
2024-02-26T14:43:19.646Z,13.75
2024-02-26T14:46:32.112Z,12.82
2024-02-26T14:49:44.860Z,13.73
2024-02-26T14:52:57.350Z,13.35
2024-02-26T14:56:10.647Z,13.27
2024-02-26T14:59:23.062Z,13.50
2024-02-26T15:02:35.756Z,14.25
2024-02-26T15:05:48.211Z,13.52
2024-02-26T15:09:01.924Z,14.98
2024-02-26T15:12:19.053Z,15.02
2024-02-26T15:15:32.546Z,15.50
2024-02-26T15:18:45.090Z,17.08
2024-02-26T15:21:57.976Z,16.02
2024-02-26T15:25:12.918Z,16.85
2024-02-26T15:28:29.884Z,19.20
2024-02-26T15:31:43.025Z,21.33
2024-02-26T15:34:56.094Z,21.98
2024-02-26T15:38:08.596Z,23.15
2024-02-26T15:41:21.309Z,23.92
2024-02-26T15:44:33.717Z,27.10
2024-02-26T15:47:48.806Z,27.73
2024-02-26T15:51:01.325Z,28.75
2024-02-26T15:54:14.076Z,25.23
2024-02-26T15:57:26.493Z,20.98
2024-02-26T16:00:43.248Z,19.87
2024-02-26T16:03:57.091Z,19.23
2024-02-26T16:07:14.152Z,20.15
2024-02-26T16:10:28.699Z,20.83
2024-02-26T16:13:41.263Z,20.15
2024-02-26T16:17:35.122Z,23.40
2024-02-26T16:20:48.450Z,26.15
2024-02-26T16:24:01.536Z,24.85
2024-02-26T16:27:14.291Z,20.83
2024-02-26T16:30:26.960Z,20.55
2024-02-26T16:33:39.879Z,21.52
2024-02-26T16:36:52.627Z,20.75
2024-02-26T16:40:06.175Z,24.27
2024-02-26T16:43:18.893Z,30.37
2024-02-26T16:46:31.352Z,29.17
2024-02-26T16:49:44.167Z,22.25
2024-02-26T16:52:56.928Z,21.48
2024-02-26T16:56:12.512Z,24.80
2024-02-26T16:59:29.315Z,23.90
2024-02-26T17:02:42.447Z,25.23
2024-02-26T17:05:54.946Z,25.75
2024-02-26T17:09:09.192Z,28.75
2024-02-26T17:12:23.446Z,26.00
2024-02-26T17:15:36.948Z,24.77
2024-02-26T17:18:49.454Z,24.37
2024-02-26T17:22:02.188Z,28.58
2024-02-26T17:25:15.066Z,35.10
2024-02-26T17:28:27.705Z,30.67
2024-02-26T17:31:43.625Z,30.42
2024-02-26T17:34:56.828Z,33.17
2024-02-26T17:38:09.377Z,33.30
2024-02-26T17:41:23.435Z,32.72
2024-02-26T17:44:37.712Z,38.95
2024-02-26T17:47:52.029Z,38.65
2024-02-26T17:51:07.169Z,38.72
2024-02-26T17:54:20.132Z,37.78
2024-02-26T17:57:32.712Z,36.40
2024-02-26T18:00:47.668Z,37.42
2024-02-26T18:04:00.490Z,38.95
2024-02-26T18:07:14.219Z,39.25
2024-02-26T18:10:26.958Z,38.00
2024-02-26T18:13:42.596Z,36.38
2024-02-26T18:16:55.274Z,37.78
2024-02-26T18:20:09.357Z,36.92
2024-02-26T18:23:21.989Z,38.47
2024-02-26T18:26:35.225Z,35.53
2024-02-26T18:29:47.921Z,35.10
2024-02-26T18:33:00.623Z,34.35
2024-02-26T18:36:13.721Z,34.30
2024-02-26T18:39:26.318Z,36.67
2024-02-26T18:42:40.700Z,32.13
2024-02-26T18:45:53.286Z,32.25
2024-02-26T18:49:06.056Z,29.95
2024-02-26T18:52:18.466Z,35.22
2024-02-26T18:55:31.347Z,34.75
2024-02-26T18:58:44.065Z,37.50
2024-02-26T19:01:56.764Z,39.17
2024-02-26T19:05:09.358Z,39.83
2024-02-26T19:08:22.228Z,40.65
2024-02-26T19:11:34.714Z,48.28
2024-02-26T19:14:47.441Z,47.17
2024-02-26T19:18:01.694Z,41.35
2024-02-26T19:21:14.504Z,35.75
2024-02-26T19:24:26.979Z,35.95
2024-02-26T19:27:39.776Z,34.42
2024-02-26T19:30:52.252Z,32.70
2024-02-26T19:34:05.123Z,31.12
2024-02-26T19:37:17.597Z,32.35
2024-02-26T19:40:30.523Z,35.78
2024-02-26T19:43:42.920Z,36.22
2024-02-26T19:46:55.593Z,35.20
2024-02-26T19:50:08.785Z,34.22
2024-02-26T19:53:21.785Z,31.75
2024-02-26T19:56:35.791Z,36.78
2024-02-26T19:59:48.418Z,35.97
2024-02-26T20:03:00.845Z,37.50
2024-02-26T20:06:14.936Z,35.53
2024-02-26T20:09:31.408Z,37.35
2024-02-26T20:12:44.383Z,38.65
2024-02-26T20:15:56.839Z,38.60
2024-02-26T20:19:10.430Z,37.85
2024-02-26T20:22:22.876Z,36.83
2024-02-26T20:25:36.477Z,35.30
2024-02-26T20:28:48.893Z,35.70
2024-02-26T20:32:01.600Z,31.50
2024-02-26T20:35:14.048Z,29.00
2024-02-26T20:38:26.703Z,29.25
2024-02-26T20:41:39.151Z,29.12
2024-02-26T20:44:52.253Z,28.17
2024-02-26T20:48:05.210Z,26.05
2024-02-26T20:51:18.033Z,24.48
2024-02-26T20:54:30.574Z,21.50
2024-02-26T20:57:43.974Z,18.60
2024-02-26T21:00:57.435Z,17.67
2024-02-26T21:04:10.178Z,16.37
2024-02-26T21:07:22.704Z,18.80
2024-02-26T21:10:35.686Z,18.87
2024-02-26T21:13:48.178Z,19.10
2024-02-26T21:17:00.892Z,19.60
2024-02-26T21:20:15.685Z,18.98
2024-02-26T21:23:28.512Z,19.30
2024-02-26T21:26:40.977Z,20.35
2024-02-26T21:29:53.716Z,20.42
2024-02-26T21:33:06.136Z,19.70
2024-02-26T21:36:19.156Z,20.10
2024-02-26T21:39:31.658Z,21.90
2024-02-26T21:42:44.384Z,21.15
2024-02-26T21:45:56.747Z,21.90
2024-02-26T21:49:09.500Z,21.10
2024-02-26T21:52:21.930Z,22.02
2024-02-26T21:55:35.123Z,20.60
2024-02-26T21:58:47.846Z,20.95
2024-02-26T22:02:00.563Z,20.33
2024-02-26T22:05:13.209Z,21.15
2024-02-26T22:08:25.849Z,17.50
2024-02-26T22:11:41.566Z,18.23
2024-02-26T22:14:54.230Z,18.73
2024-02-26T22:18:07.513Z,18.60
2024-02-26T22:21:19.877Z,19.98
2024-02-26T22:24:32.592Z,19.35
2024-02-26T22:27:47.021Z,17.35
2024-02-26T22:30:59.678Z,17.10
2024-02-26T22:34:12.215Z,16.98
2024-02-26T22:37:24.998Z,14.55
2024-02-26T22:40:37.897Z,14.90
2024-02-26T22:43:50.552Z,15.02
2024-02-26T22:47:02.931Z,14.18
2024-02-26T22:50:15.896Z,14.32
2024-02-26T22:53:28.265Z,14.15
2024-02-26T22:56:40.914Z,14.32
2024-02-26T22:59:53.338Z,14.25
2024-02-26T23:03:06.195Z,14.02
2024-02-26T23:06:18.729Z,14.15
2024-02-26T23:09:31.470Z,14.00
2024-02-26T23:12:44.006Z,13.43
2024-02-26T23:15:56.713Z,12.98
2024-02-26T23:19:09.135Z,13.82
2024-02-26T23:22:21.892Z,13.82
2024-02-26T23:25:34.685Z,13.20
2024-02-26T23:28:47.544Z,13.40
2024-02-26T23:31:59.944Z,14.63
2024-02-26T23:35:12.762Z,13.20
2024-02-26T23:38:25.197Z,13.25
2024-02-26T23:41:38.350Z,13.00
2024-02-26T23:44:52.617Z,12.93
2024-02-26T23:48:05.882Z,12.68
2024-02-26T23:51:18.390Z,12.32
2024-02-26T23:54:31.291Z,12.25
2024-02-26T23:57:43.747Z,11.73
